Time;durP1;ratioP1;P1;durP2;ratioP2;P2;SDS_P1;SDS_P2;PMS_P1;PMS_P2;Temp;Humidity;BMP_temperature;BMP_pressure;BME280_temperature;BME280_humidity;BME280_pressure;Samples;Min_cycle;Max_cycle;Signal;HPM_P1;HPM_P2
2022/01/26 00:00:04;;;;;;;4.47;2.50;;;;;;;-141.38;100.00;59521.94;2620003;54;20164;-64
2022/01/26 00:08:00;;;;;;;0.13;0.13;;;;;;;-141.38;100.00;59521.94;2624456;54;20262;-63
2022/01/26 00:10:31;;;;;;;1.03;1.03;;;;;;;-141.38;100.00;59521.94;2624258;47;20241;-64
2022/01/26 00:13:01;;;;;;;1.33;1.33;;;;;;;-141.38;100.00;59521.94;2624697;47;20162;-63
2022/01/26 00:15:34;;;;;;;1.97;0.43;;;;;;;-141.38;100.00;59521.94;2623981;47;20695;-63
2022/01/26 00:18:05;;;;;;;0.80;0.63;;;;;;;-141.38;100.00;59521.94;2623247;47;20209;-63
2022/01/26 00:20:41;;;;;;;3.87;0.77;;;;;;;-141.38;100.00;59521.94;2623741;47;20249;-63
2022/01/26 00:23:33;;;;;;;1.17;1.00;;;;;;;-141.38;100.00;59521.94;2621052;47;20168;-64
2022/01/26 00:26:08;;;;;;;0.00;0.00;;;;;;;-141.38;100.00;59521.94;2621396;54;20176;-64
2022/01/26 00:28:57;;;;;;;1.70;1.50;;;;;;;-141.38;100.00;59521.94;2622433;47;20157;-64
2022/01/26 00:39:38;;;;;;;5.70;1.70;;;;;;;-141.38;100.00;59521.94;2621022;39;20820;-64
2022/01/26 00:42:08;;;;;;;1.60;0.53;;;;;;;-141.38;100.00;59521.94;2618911;47;20177;-64
2022/01/26 00:44:46;;;;;;;1.80;0.90;;;;;;;-141.38;100.00;59521.94;2623611;47;20237;-64
2022/01/26 00:47:19;;;;;;;1.50;1.37;;;;;;;-141.38;100.00;59521.94;2619148;47;20165;-63
2022/01/26 00:49:50;;;;;;;6.90;0.67;;;;;;;-141.38;100.00;59521.94;2620029;39;20575;-64
2022/01/26 00:52:29;;;;;;;4.27;1.13;;;;;;;-141.38;100.00;59521.94;2619672;39;20588;-64
2022/01/26 00:54:59;;;;;;;1.80;0.93;;;;;;;-141.38;100.00;59521.94;2619225;47;20176;-64
2022/01/26 00:57:29;;;;;;;1.60;1.50;;;;;;;-141.38;100.00;59521.94;2619080;47;20169;-63
2022/01/26 01:00:00;;;;;;;1.27;0.60;;;;;;;-141.38;100.00;59521.94;2619864;47;20173;-64
2022/01/26 01:02:33;;;;;;;7.90;1.90;;;;;;;-141.38;100.00;59521.94;2621357;47;20169;-64
2022/01/26 01:05:11;;;;;;;2.87;2.57;;;;;;;-141.38;100.00;59521.94;2624848;54;20277;-64
2022/01/26 01:07:43;;;;;;;1.77;1.67;;;;;;;-141.38;100.00;59521.94;2624221;47;20165;-64
2022/01/26 01:10:14;;;;;;;2.20;1.60;;;;;;;-141.38;100.00;59521.94;2624849;47;20172;-63
2022/01/26 01:12:45;;;;;;;1.17;0.97;;;;;;;-141.38;100.00;59521.94;2624541;54;20221;-63
2022/01/26 01:15:16;;;;;;;1.63;1.17;;;;;;;-141.38;100.00;59521.94;2619417;47;20161;-64
2022/01/26 01:17:53;;;;;;;2.47;2.00;;;;;;;-141.38;100.00;59521.94;2620025;39;20260;-63
2022/01/26 01:20:40;;;;;;;3.67;1.90;;;;;;;-141.38;100.00;59521.94;2618970;47;20690;-63
2022/01/26 01:23:30;;;;;;;3.50;1.93;;;;;;;-141.38;100.00;59521.94;2618979;47;20161;-63
2022/01/26 01:26:22;;;;;;;3.10;2.90;;;;;;;-141.38;100.00;59521.94;2618951;47;20165;-63
2022/01/26 01:29:11;;;;;;;5.03;1.67;;;;;;;-141.38;100.00;59521.94;2617956;54;20161;-63
2022/01/26 01:31:46;;;;;;;2.53;1.70;;;;;;;-141.38;100.00;59521.94;2618898;54;20158;-64
2022/01/26 01:34:22;;;;;;;18.70;2.93;;;;;;;-141.38;100.00;59521.94;2619169;47;20168;-63
2022/01/26 01:36:53;;;;;;;0.20;0.20;;;;;;;-141.38;100.00;59521.94;2619714;54;20168;-62
2022/01/26 01:39:25;;;;;;;1.07;0.50;;;;;;;-141.38;100.00;59521.94;2619238;47;20621;-63
2022/01/26 01:41:55;;;;;;;0.37;0.37;;;;;;;-141.38;100.00;59521.94;2619583;54;20168;-62
2022/01/26 01:44:25;;;;;;;0.90;0.90;;;;;;;-141.38;100.00;59521.94;2619588;47;20165;-62
2022/01/26 01:46:57;;;;;;;0.90;0.90;;;;;;;-141.38;100.00;59521.94;2622962;47;20184;-63
2022/01/26 01:49:29;;;;;;;2.20;2.03;;;;;;;-141.38;100.00;59521.94;2622348;47;20162;-63
2022/01/26 01:52:02;;;;;;;6.43;2.40;;;;;;;-141.38;100.00;59521.94;2619926;54;20161;-63
2022/01/26 01:54:33;;;;;;;0.90;0.90;;;;;;;-141.38;100.00;59521.94;2619695;54;20173;-62
2022/01/26 01:57:03;;;;;;;5.43;2.67;;;;;;;-141.38;100.00;59521.94;2619651;54;20157;-62
2022/01/26 01:59:35;;;;;;;4.63;3.20;;;;;;;-141.38;100.00;59521.94;2619222;47;20165;-62
2022/01/26 02:02:06;;;;;;;3.03;2.73;;;;;;;-141.38;100.00;59521.94;2619304;47;20191;-62
2022/01/26 02:04:39;;;;;;;2.37;1.70;;;;;;;-141.38;100.00;59521.94;2619333;47;20172;-64
2022/01/26 02:07:10;;;;;;;34.53;7.17;;;;;;;-141.38;100.00;59521.94;2619844;39;20589;-62
2022/01/26 02:09:40;;;;;;;3.20;1.60;;;;;;;-141.38;100.00;59521.94;2619256;47;20802;-63
2022/01/26 02:12:16;;;;;;;2.27;2.07;;;;;;;-141.38;100.00;59521.94;2619760;54;20162;-63
2022/01/26 02:14:51;;;;;;;2.90;1.30;;;;;;;-141.38;100.00;59521.94;2620763;47;20257;-65
2022/01/26 02:17:38;;;;;;;2.90;1.87;;;;;;;-141.38;100.00;59521.94;2623447;46;20211;-62
2022/01/26 02:20:41;;;;;;;1.97;1.70;;;;;;;-141.38;100.00;59521.94;2625088;54;20822;-62
2022/01/26 02:56:05;;;;;;;2.13;2.03;;;;;;;-141.38;100.00;59521.94;2618840;46;20181;-63
2022/01/26 02:58:57;;;;;;;3.57;2.73;;;;;;;-141.38;100.00;59521.94;2619506;47;20168;-63
2022/01/26 03:04:17;;;;;;;3.37;2.97;;;;;;;-141.38;100.00;59521.94;2619597;39;20558;-63
2022/01/26 03:06:54;;;;;;;1.93;1.63;;;;;;;-141.38;100.00;59521.94;2619552;47;20165;-63
2022/01/26 03:09:31;;;;;;;2.67;1.73;;;;;;;-141.38;100.00;59521.94;2619983;54;20161;-63
2022/01/26 03:12:03;;;;;;;5.07;1.53;;;;;;;-141.38;100.00;59521.94;2619911;46;20748;-63
2022/01/26 03:14:44;;;;;;;3.17;2.67;;;;;;;-141.38;100.00;59521.94;2619869;47;20165;-63
2022/01/26 03:17:27;;;;;;;4.77;2.70;;;;;;;-141.38;100.00;59521.94;2619298;46;20208;-63
2022/01/26 03:20:04;;;;;;;1.07;0.73;;;;;;;-141.38;100.00;59521.94;2623422;47;20175;-63
2022/01/26 03:33:53;;;;;;;4.63;4.23;;;;;;;-141.38;100.00;59521.94;2623550;47;20680;-63
2022/01/26 03:36:26;;;;;;;5.53;2.63;;;;;;;-141.38;100.00;59521.94;2623444;54;20165;-63
2022/01/26 03:39:06;;;;;;;1.23;1.23;;;;;;;-141.38;100.00;59521.94;2623610;47;20787;-63
2022/01/26 03:41:45;;;;;;;1.83;1.00;;;;;;;-141.38;100.00;59521.94;2623352;54;20153;-63
2022/01/26 03:44:16;;;;;;;7.13;1.10;;;;;;;-141.38;100.00;59521.94;2623472;47;20248;-62
2022/01/26 03:46:48;;;;;;;1.73;1.63;;;;;;;-141.38;100.00;59521.94;2623840;47;20165;-63
2022/01/26 03:49:18;;;;;;;4.40;2.40;;;;;;;-141.38;100.00;59521.94;2623593;46;20165;-63
2022/01/26 03:51:49;;;;;;;9.60;3.73;;;;;;;-141.38;100.00;59521.94;2623408;54;20165;-63
2022/01/26 03:54:20;;;;;;;2.10;1.90;;;;;;;-141.38;100.00;59521.94;2623140;47;20169;-63
2022/01/26 03:56:53;;;;;;;0.77;0.50;;;;;;;-141.38;100.00;59521.94;2622968;51;20172;-63
2022/01/26 03:59:23;;;;;;;2.00;1.60;;;;;;;-141.38;100.00;59521.94;2623918;47;20183;-63
2022/01/26 04:01:54;;;;;;;3.83;1.23;;;;;;;-141.38;100.00;59521.94;2619358;47;20165;-63
2022/01/26 04:04:24;;;;;;;4.73;2.97;;;;;;;-141.38;100.00;59521.94;2619610;39;20562;-64
2022/01/26 04:06:55;;;;;;;5.27;4.13;;;;;;;-141.38;100.00;59521.94;2619967;47;20149;-63
2022/01/26 04:09:25;;;;;;;7.70;1.60;;;;;;;-141.38;100.00;59521.94;2623470;54;20164;-64
2022/01/26 04:11:57;;;;;;;0.50;0.50;;;;;;;-141.38;100.00;59521.94;2622368;47;20161;-65
2022/01/26 04:14:31;;;;;;;4.03;1.53;;;;;;;-141.38;100.00;59521.94;2620867;47;20164;-63
2022/01/26 04:17:02;;;;;;;2.23;2.07;;;;;;;-141.38;100.00;59521.94;2618843;54;20196;-63
2022/01/26 04:19:35;;;;;;;0.47;0.47;;;;;;;-141.38;100.00;59521.94;2619146;47;20161;-63
2022/01/26 04:22:15;;;;;;;5.23;2.17;;;;;;;-141.38;100.00;59521.94;2618917;54;20200;-64
2022/01/26 04:24:49;;;;;;;5.33;2.67;;;;;;;-141.38;100.00;59521.94;2619008;47;20188;-63
2022/01/26 04:27:30;;;;;;;2.70;2.27;;;;;;;-141.38;100.00;59521.94;2618811;47;20169;-64
2022/01/26 04:30:00;;;;;;;4.47;4.07;;;;;;;-141.38;100.00;59521.94;2620667;47;20165;-63
2022/01/26 04:32:30;;;;;;;2.80;1.13;;;;;;;-141.38;100.00;59521.94;2623092;46;20150;-64
2022/01/26 04:35:04;;;;;;;3.90;2.00;;;;;;;-141.38;100.00;59521.94;2622340;47;20709;-64
2022/01/26 04:37:49;;;;;;;2.93;2.10;;;;;;;-141.38;100.00;59521.94;2623790;47;20175;-62
2022/01/26 04:40:20;;;;;;;3.10;2.90;;;;;;;-141.38;100.00;59521.94;2623877;47;20157;-63
2022/01/26 04:42:59;;;;;;;3.10;1.67;;;;;;;-141.38;100.00;59521.94;2623360;47;20157;-62
2022/01/26 04:45:29;;;;;;;3.23;3.03;;;;;;;-141.38;100.00;59521.94;2618965;54;20149;-64
2022/01/26 04:48:00;;;;;;;6.37;2.57;;;;;;;-141.38;100.00;59521.94;2618835;47;20232;-64
2022/01/26 04:50:30;;;;;;;3.47;2.73;;;;;;;-141.38;100.00;59521.94;2618907;47;20153;-64
2022/01/26 04:53:00;;;;;;;3.50;2.60;;;;;;;-141.38;100.00;59521.94;2618739;47;20690;-64
2022/01/26 04:55:31;;;;;;;6.00;3.20;;;;;;;-141.38;100.00;59521.94;2624514;54;20198;-64
2022/01/26 04:58:03;;;;;;;9.53;3.13;;;;;;;-141.38;100.00;59521.94;2624326;54;20148;-63
2022/01/26 05:00:34;;;;;;;4.70;4.17;;;;;;;-141.38;100.00;59521.94;2624341;47;20157;-62
2022/01/26 05:03:04;;;;;;;8.43;2.97;;;;;;;-141.38;100.00;59521.94;2623594;47;20673;-62
2022/01/26 05:05:38;;;;;;;5.47;2.53;;;;;;;-141.38;100.00;59521.94;2623619;39;20571;-63
2022/01/26 05:08:08;;;;;;;4.03;2.90;;;;;;;-141.38;100.00;59521.94;2622009;47;20169;-63
2022/01/26 05:10:42;;;;;;;1.07;1.07;;;;;;;-141.38;100.00;59521.94;2624356;47;20157;-64
2022/01/26 05:13:16;;;;;;;5.03;3.43;;;;;;;-141.38;100.00;59521.94;2622837;54;20191;-63
2022/01/26 05:15:46;;;;;;;0.93;0.93;;;;;;;-141.38;100.00;59521.94;2622109;54;20176;-64
2022/01/26 05:18:16;;;;;;;0.77;0.77;;;;;;;-141.38;100.00;59521.94;2618692;47;20209;-62
2022/01/26 05:20:47;;;;;;;5.77;3.63;;;;;;;-141.38;100.00;59521.94;2621772;47;20149;-63
2022/01/26 05:23:17;;;;;;;5.67;1.77;;;;;;;-141.38;100.00;59521.94;2623895;47;20161;-63
2022/01/26 05:25:47;;;;;;;2.37;2.13;;;;;;;-141.38;100.00;59521.94;2623801;54;20167;-63
2022/01/26 05:28:20;;;;;;;4.20;2.77;;;;;;;-141.38;100.00;59521.94;2620092;47;20168;-64
2022/01/26 05:30:50;;;;;;;4.73;2.83;;;;;;;-141.38;100.00;59521.94;2619394;47;20157;-64
2022/01/26 05:33:23;;;;;;;3.33;2.33;;;;;;;-141.38;100.00;59521.94;2619199;47;20169;-64
2022/01/26 05:35:53;;;;;;;2.37;1.60;;;;;;;-141.38;100.00;59521.94;2619089;54;20157;-63
2022/01/26 05:38:24;;;;;;;5.87;5.43;;;;;;;-141.38;100.00;59521.94;2623435;47;20697;-64
2022/01/26 05:40:55;;;;;;;12.23;2.67;;;;;;;-141.38;100.00;59521.94;2624665;54;20164;-64
2022/01/26 05:43:28;;;;;;;1.93;1.83;;;;;;;-141.38;100.00;59521.94;2625151;47;20192;-64
2022/01/26 05:46:03;;;;;;;5.30;1.73;;;;;;;-141.38;100.00;59521.94;2624806;54;20160;-65
2022/01/26 05:48:34;;;;;;;1.80;1.17;;;;;;;-141.38;100.00;59521.94;2624187;47;20156;-64
2022/01/26 05:51:09;;;;;;;16.67;2.33;;;;;;;-141.38;100.00;59521.94;2622734;47;20176;-64
2022/01/26 05:53:41;;;;;;;1.90;1.80;;;;;;;-141.38;100.00;59521.94;2624957;47;20677;-64
2022/01/26 05:56:11;;;;;;;2.00;1.87;;;;;;;-141.38;100.00;59521.94;2625333;54;20160;-65
2022/01/26 05:58:44;;;;;;;0.57;0.50;;;;;;;-141.38;100.00;59521.94;2623801;54;20161;-63
2022/01/26 06:01:15;;;;;;;4.10;2.53;;;;;;;-141.38;100.00;59521.94;2621196;47;20164;-64
2022/01/26 06:03:46;;;;;;;1.63;1.43;;;;;;;-141.38;100.00;59521.94;2620773;47;20165;-64
2022/01/26 06:06:17;;;;;;;1.30;1.20;;;;;;;-141.38;100.00;59521.94;2619983;54;20162;-64
2022/01/26 06:08:47;;;;;;;2.07;1.87;;;;;;;-141.38;100.00;59521.94;2619262;47;20161;-64
2022/01/26 06:11:17;;;;;;;6.70;2.73;;;;;;;-141.38;100.00;59521.94;2619099;47;20153;-64
2022/01/26 06:13:50;;;;;;;4.40;3.97;;;;;;;-141.38;100.00;59521.94;2619088;47;20249;-63
2022/01/26 06:16:20;;;;;;;1.60;1.53;;;;;;;-141.38;100.00;59521.94;2619435;39;20307;-62
2022/01/26 06:18:50;;;;;;;6.43;3.63;;;;;;;-141.38;100.00;59521.94;2619339;47;20153;-64
2022/01/26 06:21:21;;;;;;;2.77;1.70;;;;;;;-141.38;100.00;59521.94;2620531;47;20177;-64
2022/01/26 06:23:51;;;;;;;3.57;2.60;;;;;;;-141.38;100.00;59521.94;2620834;47;20175;-63
2022/01/26 06:26:21;;;;;;;2.93;2.17;;;;;;;-141.38;100.00;59521.94;2619516;54;20171;-64
2022/01/26 06:28:54;;;;;;;2.97;2.77;;;;;;;-141.38;100.00;59521.94;2620013;47;20798;-64
2022/01/26 06:31:30;;;;;;;7.53;4.73;;;;;;;-141.38;100.00;59521.94;2624030;47;20258;-63
2022/01/26 06:34:02;;;;;;;5.77;4.30;;;;;;;-141.38;100.00;59521.94;2621747;47;20145;-64
2022/01/26 06:36:32;;;;;;;9.23;4.33;;;;;;;-141.38;100.00;59521.94;2625511;54;20253;-64
2022/01/26 06:39:04;;;;;;;3.00;2.50;;;;;;;-141.38;100.00;59521.94;2626185;47;20750;-64
2022/01/26 06:41:34;;;;;;;6.03;3.20;;;;;;;-141.38;100.00;59521.94;2624837;47;20264;-63
2022/01/26 06:44:17;;;;;;;3.17;1.60;;;;;;;-141.38;100.00;59521.94;2621034;54;20164;-64
2022/01/26 06:46:56;;;;;;;0.93;0.83;;;;;;;-141.38;100.00;59521.94;2617472;47;20157;-64
2022/01/26 06:49:32;;;;;;;0.53;0.33;;;;;;;-141.38;100.00;59521.94;2622952;39;20602;-64
2022/01/26 06:52:02;;;;;;;4.20;2.93;;;;;;;-141.38;100.00;59521.94;2622583;47;20159;-64
2022/01/26 06:54:33;;;;;;;2.23;1.63;;;;;;;-141.38;100.00;59521.94;2620774;54;20177;-64
2022/01/26 06:57:03;;;;;;;8.57;3.70;;;;;;;-141.38;100.00;59521.94;2617977;47;20173;-64
2022/01/26 06:59:36;;;;;;;0.90;0.87;;;;;;;-141.38;100.00;59521.94;2618514;39;20597;-64
2022/01/26 07:02:06;;;;;;;1.47;1.47;;;;;;;-141.38;100.00;59521.94;2619887;47;20158;-64
2022/01/26 07:04:37;;;;;;;1.33;1.33;;;;;;;-141.38;100.00;59521.94;2622364;47;20169;-64
2022/01/26 07:07:07;;;;;;;1.87;1.17;;;;;;;-141.38;100.00;59521.94;2622608;54;20249;-64
2022/01/26 07:09:37;;;;;;;6.50;1.23;;;;;;;-141.38;100.00;59521.94;2622559;47;20164;-64
2022/01/26 07:12:09;;;;;;;0.93;0.90;;;;;;;-141.38;100.00;59521.94;2622473;47;20157;-64
2022/01/26 07:22:54;;;;;;;2.93;1.73;;;;;;;-141.38;100.00;59521.94;2626178;47;20166;-65
2022/01/26 07:25:24;;;;;;;2.47;1.50;;;;;;;-141.38;100.00;59521.94;2623600;47;20716;-65
2022/01/26 07:27:55;;;;;;;3.13;2.80;;;;;;;-141.38;100.00;59521.94;2624320;39;20636;-65
2022/01/26 07:30:28;;;;;;;3.43;3.13;;;;;;;-141.38;100.00;59521.94;2623010;54;20176;-64
2022/01/26 07:32:59;;;;;;;5.20;3.60;;;;;;;-141.38;100.00;59521.94;2619390;47;20173;-64
2022/01/26 07:35:29;;;;;;;0.23;0.23;;;;;;;-141.38;100.00;59521.94;2620596;54;20166;-64
2022/01/26 07:38:01;;;;;;;6.37;1.17;;;;;;;-141.38;100.00;59521.94;2624942;47;20158;-64
2022/01/26 07:40:33;;;;;;;4.80;2.90;;;;;;;-141.38;100.00;59521.94;2626751;47;20158;-64
2022/01/26 07:43:03;;;;;;;8.30;2.80;;;;;;;-141.38;100.00;59521.94;2624444;39;20553;-64
2022/01/26 07:45:36;;;;;;;6.60;3.07;;;;;;;-141.38;100.00;59521.94;2622714;47;20165;-64
2022/01/26 07:48:06;;;;;;;3.77;2.70;;;;;;;-141.38;100.00;59521.94;2621237;54;20787;-64
2022/01/26 07:50:37;;;;;;;0.63;0.63;;;;;;;-141.38;100.00;59521.94;2622639;54;20166;-64
2022/01/26 07:53:13;;;;;;;5.13;2.50;;;;;;;-141.38;100.00;59521.94;2620399;47;20166;-63
2022/01/26 07:55:44;;;;;;;3.73;3.37;;;;;;;-141.38;100.00;59521.94;2620074;46;20160;-64
2022/01/26 07:58:14;;;;;;;3.27;2.03;;;;;;;-141.38;100.00;59521.94;2619965;39;20554;-64
2022/01/26 08:00:47;;;;;;;2.07;1.83;;;;;;;-141.38;100.00;59521.94;2620258;47;20157;-64
2022/01/26 08:03:17;;;;;;;2.73;2.20;;;;;;;-141.38;100.00;59521.94;2622845;47;20169;-63
2022/01/26 08:05:48;;;;;;;4.40;2.83;;;;;;;-141.38;100.00;59521.94;2623999;47;20161;-63
2022/01/26 08:08:18;;;;;;;4.80;2.73;;;;;;;-141.38;100.00;59521.94;2623999;47;20161;-63
2022/01/26 08:10:49;;;;;;;3.23;2.87;;;;;;;-141.38;100.00;59521.94;2624335;54;20161;-63
2022/01/26 08:13:19;;;;;;;4.00;2.40;;;;;;;-141.38;100.00;59521.94;2620287;47;20177;-65
2022/01/26 08:15:56;;;;;;;7.40;6.00;;;;;;;-141.38;100.00;59521.94;2619583;47;20145;-64
2022/01/26 08:18:27;;;;;;;5.70;2.77;;;;;;;-141.38;100.00;59521.94;2619660;47;20171;-64
2022/01/26 08:21:03;;;;;;;7.63;4.73;;;;;;;-141.38;100.00;59521.94;2621903;54;20179;-64
2022/01/26 08:23:35;;;;;;;7.20;3.33;;;;;;;-141.38;100.00;59521.94;2625012;47;20150;-63
2022/01/26 08:26:06;;;;;;;3.77;3.47;;;;;;;-141.38;100.00;59521.94;2622743;47;20804;-64
2022/01/26 08:28:39;;;;;;;2.53;1.70;;;;;;;-141.38;100.00;59521.94;2620239;47;20169;-64
2022/01/26 08:31:12;;;;;;;10.33;4.37;;;;;;;-141.38;100.00;59521.94;2619948;47;20161;-64
2022/01/26 08:33:43;;;;;;;7.30;3.27;;;;;;;-141.38;100.00;59521.94;2619604;47;20170;-63
2022/01/26 08:36:13;;;;;;;4.30;1.47;;;;;;;-141.38;100.00;59521.94;2620207;47;20169;-64
2022/01/26 08:38:43;;;;;;;3.13;2.53;;;;;;;-141.38;100.00;59521.94;2619378;47;20169;-64
2022/01/26 08:41:14;;;;;;;4.00;2.97;;;;;;;-141.38;100.00;59521.94;2622278;47;20161;-63
2022/01/26 08:43:45;;;;;;;2.30;2.10;;;;;;;-141.38;100.00;59521.94;2623805;54;20162;-64
2022/01/26 08:46:20;;;;;;;5.50;3.83;;;;;;;-141.38;100.00;59521.94;2621155;54;20165;-64
2022/01/26 08:48:51;;;;;;;10.23;4.53;;;;;;;-141.38;100.00;59521.94;2619343;54;20176;-65
2022/01/26 08:51:24;;;;;;;4.70;3.27;;;;;;;-141.38;100.00;59521.94;2619439;54;20161;-64
2022/01/26 08:53:54;;;;;;;5.97;1.37;;;;;;;-141.38;100.00;59521.94;2619293;39;20627;-63
2022/01/26 08:56:24;;;;;;;2.47;1.33;;;;;;;-141.38;100.00;59521.94;2623673;47;20168;-63
2022/01/26 08:58:56;;;;;;;2.60;2.43;;;;;;;-141.38;100.00;59521.94;2623917;47;20169;-63
2022/01/26 09:01:28;;;;;;;3.77;2.03;;;;;;;-141.38;100.00;59521.94;2623752;47;20177;-64
2022/01/26 09:03:59;;;;;;;2.23;2.03;;;;;;;-141.38;100.00;59521.94;2623295;47;20165;-64
2022/01/26 09:06:31;;;;;;;6.07;2.17;;;;;;;-141.38;100.00;59521.94;2623901;54;20162;-65
2022/01/26 09:09:06;;;;;;;5.57;5.03;;;;;;;-141.38;100.00;59521.94;2623256;47;20153;-63
2022/01/26 09:11:39;;;;;;;2.07;1.90;;;;;;;-141.38;100.00;59521.94;2623898;47;20165;-64
2022/01/26 09:14:16;;;;;;;4.87;4.40;;;;;;;-141.38;100.00;59521.94;2622696;54;20157;-63
2022/01/26 09:16:51;;;;;;;7.60;5.47;;;;;;;-141.38;100.00;59521.94;2623518;47;20212;-64
2022/01/26 09:22:09;;;;;;;6.10;4.07;;;;;;;-141.38;100.00;59521.94;2623191;39;20581;-63
2022/01/26 09:24:42;;;;;;;5.53;2.67;;;;;;;-141.38;100.00;59521.94;2621354;54;20237;-64
2022/01/26 09:27:14;;;;;;;9.30;2.93;;;;;;;-141.38;100.00;59521.94;2623559;47;20161;-64
2022/01/26 09:29:45;;;;;;;5.10;3.03;;;;;;;-141.38;100.00;59521.94;2625732;51;20188;-63
2022/01/26 09:32:18;;;;;;;5.03;3.63;;;;;;;-141.38;100.00;59521.94;2621448;47;20700;-63
2022/01/26 09:34:49;;;;;;;5.07;4.00;;;;;;;-141.38;100.00;59521.94;2622442;47;20221;-63
2022/01/26 09:37:19;;;;;;;8.47;4.27;;;;;;;-141.38;100.00;59521.94;2620208;54;20149;-64
2022/01/26 09:39:50;;;;;;;3.43;3.13;;;;;;;-141.38;100.00;59521.94;2619386;47;20150;-65
2022/01/26 09:42:21;;;;;;;7.97;3.73;;;;;;;-141.38;100.00;59521.94;2619362;46;20169;-64
2022/01/26 09:44:51;;;;;;;2.93;2.67;;;;;;;-141.38;100.00;59521.94;2619485;54;20165;-64
2022/01/26 09:47:25;;;;;;;5.00;2.60;;;;;;;-141.38;100.00;59521.94;2619587;47;20169;-64
2022/01/26 09:49:55;;;;;;;4.43;2.83;;;;;;;-141.38;100.00;59521.94;2619788;39;20298;-64
2022/01/26 09:52:31;;;;;;;3.47;3.17;;;;;;;-141.38;100.00;59521.94;2621276;47;20162;-64
2022/01/26 09:55:02;;;;;;;8.73;3.60;;;;;;;-141.38;100.00;59521.94;2624398;47;20168;-64
2022/01/26 09:57:32;;;;;;;8.03;3.10;;;;;;;-141.38;100.00;59521.94;2624773;46;20264;-64
2022/01/26 10:00:03;;;;;;;2.40;1.83;;;;;;;-141.38;100.00;59521.94;2624744;54;20160;-63
2022/01/26 10:02:39;;;;;;;2.27;2.07;;;;;;;-141.38;100.00;59521.94;2625141;39;20663;-63
2022/01/26 10:05:12;;;;;;;1.43;1.33;;;;;;;-141.38;100.00;59521.94;2622977;47;20173;-64
2022/01/26 10:07:59;;;;;;;8.17;2.33;;;;;;;-141.38;100.00;59521.94;2621834;54;20169;-63
2022/01/26 10:15:27;;;;;;;4.17;3.00;;;;;;;-141.38;100.00;59521.94;2620248;47;20172;-64
2022/01/26 10:16:48;;;;;;;5.87;1.93;;;;;;;-141.38;100.00;59521.94;2620031;47;20189;-64
2022/01/26 10:19:21;;;;;;;1.90;1.50;;;;;;;-141.38;100.00;59521.94;2620903;47;20169;-63
2022/01/26 10:21:53;;;;;;;0.73;0.73;;;;;;;-141.38;100.00;59521.94;2622708;54;20160;-64
2022/01/26 10:24:30;;;;;;;4.57;1.57;;;;;;;-141.38;100.00;59521.94;2625072;47;20249;-63
2022/01/26 10:27:01;;;;;;;2.27;1.03;;;;;;;-141.38;100.00;59521.94;2624632;47;20189;-64
2022/01/26 10:29:33;;;;;;;6.90;3.53;;;;;;;-141.38;100.00;59521.94;2624381;47;20164;-65
2022/01/26 10:32:14;;;;;;;6.50;3.07;;;;;;;-141.38;100.00;59521.94;2624929;47;20287;-64
2022/01/26 10:35:01;;;;;;;3.27;2.53;;;;;;;-141.38;100.00;59521.94;2624453;47;20167;-64
2022/01/26 10:37:31;;;;;;;4.83;0.70;;;;;;;-141.38;100.00;59521.94;2624690;47;20168;-64
2022/01/26 10:40:15;;;;;;;3.27;2.97;;;;;;;-141.38;100.00;59521.94;2624273;39;20803;-64
2022/01/26 10:42:58;;;;;;;2.73;2.53;;;;;;;-141.38;100.00;59521.94;2620163;47;20149;-65
2022/01/26 10:45:36;;;;;;;3.90;1.93;;;;;;;-141.38;100.00;59521.94;2620136;47;20173;-64
2022/01/26 10:48:19;;;;;;;2.30;1.67;;;;;;;-141.38;100.00;59521.94;2624868;47;20161;-63
2022/01/26 10:53:47;;;;;;;4.80;2.43;;;;;;;-141.38;100.00;59521.94;2618733;54;20158;-64
2022/01/26 10:56:18;;;;;;;3.00;1.57;;;;;;;-141.38;100.00;59521.94;2619143;47;20165;-64
2022/01/26 10:58:48;;;;;;;2.97;0.57;;;;;;;-141.38;100.00;59521.94;2622587;47;20205;-64
2022/01/26 11:01:19;;;;;;;5.70;3.70;;;;;;;-141.38;100.00;59521.94;2624469;47;20187;-64
2022/01/26 11:03:52;;;;;;;3.63;2.23;;;;;;;-141.38;100.00;59521.94;2623129;47;20229;-63
2022/01/26 11:06:25;;;;;;;2.10;1.70;;;;;;;-141.38;100.00;59521.94;2618947;47;20196;-63
2022/01/26 11:09:00;;;;;;;2.80;2.30;;;;;;;-141.38;100.00;59521.94;2618981;47;20157;-64
2022/01/26 11:11:30;;;;;;;9.77;2.17;;;;;;;-141.38;100.00;59521.94;2618967;47;20289;-63
2022/01/26 11:14:01;;;;;;;4.30;2.87;;;;;;;-141.38;100.00;59521.94;2625509;47;20173;-63
2022/01/26 11:16:53;;;;;;;1.73;1.57;;;;;;;-141.38;100.00;59521.94;2625730;47;20209;-63
2022/01/26 11:19:24;;;;;;;1.37;1.27;;;;;;;-141.38;100.00;59521.94;2623683;51;20209;-64
2022/01/26 11:22:08;;;;;;;1.63;1.53;;;;;;;-141.38;100.00;59521.94;2620318;47;20157;-64
2022/01/26 11:25:10;;;;;;;3.57;2.30;;;;;;;-141.38;100.00;59521.94;2619916;39;20592;-64
2022/01/26 11:27:42;;;;;;;3.50;2.80;;;;;;;-141.38;100.00;59521.94;2624589;54;20165;-64
2022/01/26 11:30:21;;;;;;;5.10;2.20;;;;;;;-141.38;100.00;59521.94;2625516;54;20248;-64
2022/01/26 11:32:54;;;;;;;8.07;3.17;;;;;;;-141.38;100.00;59521.94;2628241;51;20175;-65
2022/01/26 11:35:27;;;;;;;2.17;1.63;;;;;;;-141.38;100.00;59521.94;2623580;47;20167;-64
2022/01/26 11:38:15;;;;;;;3.60;2.07;;;;;;;-141.38;100.00;59521.94;2623754;47;20148;-64
2022/01/26 11:46:24;;;;;;;0.07;0.07;;;;;;;-141.38;100.00;59521.94;2622915;39;20557;-68
2022/01/26 11:49:05;;;;;;;2.47;2.13;;;;;;;-141.38;100.00;59521.94;2620377;47;20146;-65
2022/01/26 11:51:47;;;;;;;1.27;0.90;;;;;;;-141.38;100.00;59521.94;2620017;46;20154;-65
2022/01/26 11:54:23;;;;;;;1.77;1.67;;;;;;;-141.38;100.00;59521.94;2619921;47;20153;-64
2022/01/26 11:56:59;;;;;;;2.20;1.20;;;;;;;-141.38;100.00;59521.94;2620742;54;20157;-64
2022/01/26 11:59:33;;;;;;;2.43;2.10;;;;;;;-141.38;100.00;59521.94;2623961;47;20164;-64
2022/01/26 12:02:08;;;;;;;0.70;0.70;;;;;;;-141.38;100.00;59521.94;2624191;47;20157;-64
2022/01/26 12:04:39;;;;;;;0.23;0.23;;;;;;;-141.38;100.00;59521.94;2624179;47;20179;-64
2022/01/26 12:07:21;;;;;;;2.00;0.53;;;;;;;-141.38;100.00;59521.94;2624067;54;20168;-63
2022/01/26 12:09:56;;;;;;;2.90;1.77;;;;;;;-141.38;100.00;59521.94;2624546;47;20157;-64
2022/01/26 12:12:27;;;;;;;4.60;2.03;;;;;;;-141.38;100.00;59521.94;2624476;47;20191;-64
2022/01/26 12:15:07;;;;;;;3.90;2.97;;;;;;;-141.38;100.00;59521.94;2623864;47;20245;-63
2022/01/26 12:17:45;;;;;;;1.67;1.10;;;;;;;-141.38;100.00;59521.94;2623951;54;20197;-64
2022/01/26 12:36:58;;;;;;;1.90;1.60;;;;;;;-141.38;100.00;59521.94;2619871;47;20757;-63
